sensor_id;sensor_type;location;lat;lon;timestamp;P1;durP1;ratioP1;P2;durP2;ratioP2
673;SDS011;319;48.764;9.174;2022-09-21T00:01:13;1.20;;;1.20;;
673;SDS011;319;48.764;9.174;2022-09-21T00:03:42;1.10;;;1.10;;
673;SDS011;319;48.764;9.174;2022-09-21T00:06:10;1.10;;;1.10;;
673;SDS011;319;48.764;9.174;2022-09-21T00:08:38;1.00;;;1.00;;
673;SDS011;319;48.764;9.174;2022-09-21T00:11:05;1.10;;;1.10;;
673;SDS011;319;48.764;9.174;2022-09-21T00:13:33;1.20;;;1.20;;
673;SDS011;319;48.764;9.174;2022-09-21T00:16:05;1.30;;;1.30;;
673;SDS011;319;48.764;9.174;2022-09-21T00:18:33;1.10;;;1.10;;
673;SDS011;319;48.764;9.174;2022-09-21T00:21:00;1.10;;;1.10;;
673;SDS011;319;48.764;9.174;2022-09-21T00:23:32;1.10;;;1.10;;
673;SDS011;319;48.764;9.174;2022-09-21T00:26:03;4.33;;;4.23;;
673;SDS011;319;48.764;9.174;2022-09-21T00:28:34;8.20;;;8.00;;
673;SDS011;319;48.764;9.174;2022-09-21T00:31:01;8.40;;;8.20;;
673;SDS011;319;48.764;9.174;2022-09-21T00:33:30;1.10;;;1.10;;
673;SDS011;319;48.764;9.174;2022-09-21T00:36:00;1.00;;;1.00;;
673;SDS011;319;48.764;9.174;2022-09-21T00:38:28;1.10;;;1.10;;
673;SDS011;319;48.764;9.174;2022-09-21T00:40:56;1.00;;;1.00;;
673;SDS011;319;48.764;9.174;2022-09-21T00:43:23;1.00;;;1.00;;
673;SDS011;319;48.764;9.174;2022-09-21T00:45:58;1.20;;;1.20;;
673;SDS011;319;48.764;9.174;2022-09-21T00:48:30;1.10;;;1.10;;
673;SDS011;319;48.764;9.174;2022-09-21T00:50:58;1.53;;;1.53;;
673;SDS011;319;48.764;9.174;2022-09-21T00:53:29;12.50;;;12.20;;
673;SDS011;319;48.764;9.174;2022-09-21T00:55:56;1.10;;;1.10;;
673;SDS011;319;48.764;9.174;2022-09-21T00:58:27;1.20;;;1.20;;
673;SDS011;319;48.764;9.174;2022-09-21T01:00:58;1.10;;;1.10;;
673;SDS011;319;48.764;9.174;2022-09-21T01:03:26;1.10;;;1.10;;
673;SDS011;319;48.764;9.174;2022-09-21T01:05:57;1.00;;;1.00;;
673;SDS011;319;48.764;9.174;2022-09-21T01:08:24;1.20;;;1.20;;
673;SDS011;319;48.764;9.174;2022-09-21T01:11:00;1.20;;;1.20;;
673;SDS011;319;48.764;9.174;2022-09-21T01:13:41;1.20;;;1.20;;
673;SDS011;319;48.764;9.174;2022-09-21T01:16:21;1.20;;;1.20;;
673;SDS011;319;48.764;9.174;2022-09-21T01:18:56;1.10;;;1.10;;
673;SDS011;319;48.764;9.174;2022-09-21T01:21:30;1.20;;;1.20;;
673;SDS011;319;48.764;9.174;2022-09-21T01:24:08;1.20;;;1.20;;
673;SDS011;319;48.764;9.174;2022-09-21T01:27:05;1.30;;;1.30;;
673;SDS011;319;48.764;9.174;2022-09-21T01:30:03;1.30;;;1.30;;
673;SDS011;319;48.764;9.174;2022-09-21T01:32:33;1.20;;;1.20;;
673;SDS011;319;48.764;9.174;2022-09-21T01:35:04;1.10;;;1.10;;
673;SDS011;319;48.764;9.174;2022-09-21T01:37:36;1.20;;;1.20;;
673;SDS011;319;48.764;9.174;2022-09-21T01:40:07;1.10;;;1.10;;
673;SDS011;319;48.764;9.174;2022-09-21T01:42:37;1.20;;;1.20;;
673;SDS011;319;48.764;9.174;2022-09-21T01:45:09;1.20;;;1.20;;
673;SDS011;319;48.764;9.174;2022-09-21T01:47:41;1.10;;;1.10;;
673;SDS011;319;48.764;9.174;2022-09-21T01:50:10;1.03;;;1.03;;
673;SDS011;319;48.764;9.174;2022-09-21T01:52:39;1.10;;;1.10;;
673;SDS011;319;48.764;9.174;2022-09-21T01:55:11;1.93;;;1.93;;
673;SDS011;319;48.764;9.174;2022-09-21T01:57:43;1.20;;;1.20;;
673;SDS011;319;48.764;9.174;2022-09-21T02:00:16;1.20;;;1.20;;
673;SDS011;319;48.764;9.174;2022-09-21T02:02:45;1.10;;;1.10;;
673;SDS011;319;48.764;9.174;2022-09-21T02:05:15;1.10;;;1.10;;
673;SDS011;319;48.764;9.174;2022-09-21T02:07:45;1.10;;;1.10;;
673;SDS011;319;48.764;9.174;2022-09-21T02:10:14;1.10;;;1.10;;
673;SDS011;319;48.764;9.174;2022-09-21T02:12:46;1.20;;;1.20;;
673;SDS011;319;48.764;9.174;2022-09-21T02:15:17;1.10;;;1.10;;
673;SDS011;319;48.764;9.174;2022-09-21T02:17:50;1.03;;;1.03;;
673;SDS011;319;48.764;9.174;2022-09-21T02:20:27;1.10;;;1.10;;
673;SDS011;319;48.764;9.174;2022-09-21T02:23:00;1.30;;;1.30;;
673;SDS011;319;48.764;9.174;2022-09-21T02:25:35;1.10;;;1.10;;
673;SDS011;319;48.764;9.174;2022-09-21T02:28:11;1.10;;;1.10;;
673;SDS011;319;48.764;9.174;2022-09-21T02:30:50;1.10;;;1.10;;
673;SDS011;319;48.764;9.174;2022-09-21T02:33:25;0.90;;;0.90;;
673;SDS011;319;48.764;9.174;2022-09-21T02:35:58;1.10;;;1.10;;
673;SDS011;319;48.764;9.174;2022-09-21T02:38:33;1.10;;;1.10;;
673;SDS011;319;48.764;9.174;2022-09-21T02:41:03;1.10;;;1.10;;
673;SDS011;319;48.764;9.174;2022-09-21T02:43:38;1.20;;;1.20;;
673;SDS011;319;48.764;9.174;2022-09-21T02:46:11;1.20;;;1.20;;
673;SDS011;319;48.764;9.174;2022-09-21T02:48:42;1.20;;;1.20;;
673;SDS011;319;48.764;9.174;2022-09-21T02:51:13;1.20;;;1.20;;
673;SDS011;319;48.764;9.174;2022-09-21T02:53:43;1.30;;;1.30;;
673;SDS011;319;48.764;9.174;2022-09-21T02:56:11;1.20;;;1.20;;
673;SDS011;319;48.764;9.174;2022-09-21T02:58:40;4.40;;;4.30;;
673;SDS011;319;48.764;9.174;2022-09-21T03:01:13;1.10;;;1.10;;
673;SDS011;319;48.764;9.174;2022-09-21T03:03:41;1.00;;;1.00;;
673;SDS011;319;48.764;9.174;2022-09-21T03:06:08;1.10;;;1.10;;
673;SDS011;319;48.764;9.174;2022-09-21T03:08:36;3.03;;;2.97;;
673;SDS011;319;48.764;9.174;2022-09-21T03:11:02;1.60;;;1.60;;
673;SDS011;319;48.764;9.174;2022-09-21T03:13:30;6.50;;;6.40;;
673;SDS011;319;48.764;9.174;2022-09-21T03:16:00;6.43;;;6.33;;
673;SDS011;319;48.764;9.174;2022-09-21T03:18:30;3.20;;;3.10;;
673;SDS011;319;48.764;9.174;2022-09-21T03:20:57;6.37;;;6.27;;
673;SDS011;319;48.764;9.174;2022-09-21T03:23:24;11.30;;;11.00;;
673;SDS011;319;48.764;9.174;2022-09-21T03:25:51;2.10;;;2.10;;
673;SDS011;319;48.764;9.174;2022-09-21T03:28:18;2.80;;;2.80;;
673;SDS011;319;48.764;9.174;2022-09-21T03:30:47;6.40;;;6.30;;
673;SDS011;319;48.764;9.174;2022-09-21T03:33:14;15.40;;;15.00;;
673;SDS011;319;48.764;9.174;2022-09-21T03:35:42;2.17;;;2.17;;
673;SDS011;319;48.764;9.174;2022-09-21T03:38:09;2.00;;;2.00;;
673;SDS011;319;48.764;9.174;2022-09-21T03:40:36;1.90;;;1.90;;
673;SDS011;319;48.764;9.174;2022-09-21T03:43:03;1.83;;;1.83;;
673;SDS011;319;48.764;9.174;2022-09-21T03:45:30;1.97;;;1.97;;
673;SDS011;319;48.764;9.174;2022-09-21T03:47:57;1.90;;;1.90;;
673;SDS011;319;48.764;9.174;2022-09-21T03:50:25;1.43;;;1.43;;
673;SDS011;319;48.764;9.174;2022-09-21T03:52:54;1.83;;;1.83;;
673;SDS011;319;48.764;9.174;2022-09-21T03:55:22;2.13;;;2.13;;
673;SDS011;319;48.764;9.174;2022-09-21T03:57:49;2.00;;;2.00;;
673;SDS011;319;48.764;9.174;2022-09-21T04:00:16;2.07;;;2.07;;
673;SDS011;319;48.764;9.174;2022-09-21T04:02:43;2.40;;;2.40;;
673;SDS011;319;48.764;9.174;2022-09-21T04:05:10;2.40;;;2.40;;
673;SDS011;319;48.764;9.174;2022-09-21T04:07:39;2.27;;;2.27;;
673;SDS011;319;48.764;9.174;2022-09-21T04:10:09;2.17;;;2.17;;
673;SDS011;319;48.764;9.174;2022-09-21T04:12:38;2.10;;;2.10;;
673;SDS011;319;48.764;9.174;2022-09-21T04:15:13;2.00;;;2.00;;
673;SDS011;319;48.764;9.174;2022-09-21T04:18:04;2.03;;;2.03;;
673;SDS011;319;48.764;9.174;2022-09-21T04:21:08;2.10;;;2.10;;
673;SDS011;319;48.764;9.174;2022-09-21T04:24:01;2.30;;;2.30;;
673;SDS011;319;48.764;9.174;2022-09-21T04:26:31;2.10;;;2.10;;
673;SDS011;319;48.764;9.174;2022-09-21T04:29:02;2.37;;;2.37;;
673;SDS011;319;48.764;9.174;2022-09-21T04:31:32;2.77;;;2.77;;
673;SDS011;319;48.764;9.174;2022-09-21T04:38:43;3.60;;;3.50;;
673;SDS011;319;48.764;9.174;2022-09-21T04:44:59;2.20;;;2.20;;
673;SDS011;319;48.764;9.174;2022-09-21T04:47:42;2.40;;;2.40;;
673;SDS011;319;48.764;9.174;2022-09-21T04:54:02;2.10;;;2.10;;
673;SDS011;319;48.764;9.174;2022-09-21T04:56:46;1.70;;;1.70;;
673;SDS011;319;48.764;9.174;2022-09-21T04:59:14;1.70;;;1.70;;
673;SDS011;319;48.764;9.174;2022-09-21T05:01:41;1.73;;;1.73;;
673;SDS011;319;48.764;9.174;2022-09-21T05:04:13;2.00;;;2.00;;
673;SDS011;319;48.764;9.174;2022-09-21T05:07:26;1.80;;;1.80;;
673;SDS011;319;48.764;9.174;2022-09-21T05:09:54;1.50;;;1.50;;
673;SDS011;319;48.764;9.174;2022-09-21T05:12:28;2.00;;;2.00;;
673;SDS011;319;48.764;9.174;2022-09-21T05:14:57;1.60;;;1.60;;
673;SDS011;319;48.764;9.174;2022-09-21T05:17:25;1.67;;;1.67;;
673;SDS011;319;48.764;9.174;2022-09-21T05:19:52;1.70;;;1.70;;
673;SDS011;319;48.764;9.174;2022-09-21T05:22:19;1.50;;;1.50;;
673;SDS011;319;48.764;9.174;2022-09-21T05:24:46;1.73;;;1.73;;
673;SDS011;319;48.764;9.174;2022-09-21T05:27:13;1.50;;;1.50;;
673;SDS011;319;48.764;9.174;2022-09-21T05:29:40;1.40;;;1.40;;
673;SDS011;319;48.764;9.174;2022-09-21T05:32:19;1.70;;;1.70;;
673;SDS011;319;48.764;9.174;2022-09-21T05:34:59;1.80;;;1.80;;
673;SDS011;319;48.764;9.174;2022-09-21T05:37:50;2.00;;;2.00;;
673;SDS011;319;48.764;9.174;2022-09-21T05:40:21;1.70;;;1.70;;
673;SDS011;319;48.764;9.174;2022-09-21T05:42:55;2.10;;;2.10;;
673;SDS011;319;48.764;9.174;2022-09-21T05:45:22;2.10;;;2.10;;
673;SDS011;319;48.764;9.174;2022-09-21T05:47:57;1.70;;;1.70;;
673;SDS011;319;48.764;9.174;2022-09-21T05:50:38;2.20;;;2.20;;
673;SDS011;319;48.764;9.174;2022-09-21T05:53:23;9.77;;;9.57;;
673;SDS011;319;48.764;9.174;2022-09-21T05:56:01;8.37;;;8.17;;
673;SDS011;319;48.764;9.174;2022-09-21T05:58:35;8.30;;;8.10;;
673;SDS011;319;48.764;9.174;2022-09-21T06:01:18;2.00;;;2.00;;
673;SDS011;319;48.764;9.174;2022-09-21T06:03:55;1.60;;;1.60;;
673;SDS011;319;48.764;9.174;2022-09-21T06:06:26;1.93;;;1.93;;
673;SDS011;319;48.764;9.174;2022-09-21T06:08:52;2.13;;;2.13;;
673;SDS011;319;48.764;9.174;2022-09-21T06:11:19;2.40;;;2.40;;
673;SDS011;319;48.764;9.174;2022-09-21T06:13:46;2.47;;;2.47;;
673;SDS011;319;48.764;9.174;2022-09-21T06:16:13;2.50;;;2.50;;
673;SDS011;319;48.764;9.174;2022-09-21T06:18:40;2.10;;;2.10;;
673;SDS011;319;48.764;9.174;2022-09-21T06:21:12;2.07;;;2.07;;
673;SDS011;319;48.764;9.174;2022-09-21T06:23:39;2.60;;;2.60;;
673;SDS011;319;48.764;9.174;2022-09-21T06:26:05;2.30;;;2.30;;
673;SDS011;319;48.764;9.174;2022-09-21T06:28:32;1.80;;;1.80;;
673;SDS011;319;48.764;9.174;2022-09-21T06:30:59;2.20;;;2.20;;
673;SDS011;319;48.764;9.174;2022-09-21T06:33:26;2.20;;;2.20;;
673;SDS011;319;48.764;9.174;2022-09-21T06:35:53;2.53;;;2.53;;
673;SDS011;319;48.764;9.174;2022-09-21T06:38:23;2.20;;;2.20;;
673;SDS011;319;48.764;9.174;2022-09-21T06:40:50;1.80;;;1.80;;
673;SDS011;319;48.764;9.174;2022-09-21T06:43:18;2.30;;;2.30;;
673;SDS011;319;48.764;9.174;2022-09-21T06:45:51;2.50;;;2.50;;
673;SDS011;319;48.764;9.174;2022-09-21T06:48:19;2.20;;;2.20;;
673;SDS011;319;48.764;9.174;2022-09-21T06:50:45;2.40;;;2.40;;
673;SDS011;319;48.764;9.174;2022-09-21T06:53:13;1.90;;;1.90;;
673;SDS011;319;48.764;9.174;2022-09-21T06:55:42;2.40;;;2.40;;
673;SDS011;319;48.764;9.174;2022-09-21T06:58:09;2.40;;;2.40;;
673;SDS011;319;48.764;9.174;2022-09-21T07:00:35;3.10;;;3.00;;
673;SDS011;319;48.764;9.174;2022-09-21T07:03:04;3.60;;;3.50;;
673;SDS011;319;48.764;9.174;2022-09-21T07:05:34;2.63;;;2.63;;
673;SDS011;319;48.764;9.174;2022-09-21T07:08:01;5.50;;;5.40;;
673;SDS011;319;48.764;9.174;2022-09-21T07:10:28;3.53;;;3.43;;
673;SDS011;319;48.764;9.174;2022-09-21T07:12:59;2.17;;;2.17;;
673;SDS011;319;48.764;9.174;2022-09-21T07:15:29;3.20;;;3.10;;
673;SDS011;319;48.764;9.174;2022-09-21T07:17:55;1.00;;;1.00;;
673;SDS011;319;48.764;9.174;2022-09-21T07:20:22;1.00;;;1.00;;
673;SDS011;319;48.764;9.174;2022-09-21T07:22:49;3.53;;;3.43;;
673;SDS011;319;48.764;9.174;2022-09-21T07:25:16;1.73;;;1.73;;
673;SDS011;319;48.764;9.174;2022-09-21T07:27:43;0.90;;;0.90;;
673;SDS011;319;48.764;9.174;2022-09-21T07:30:13;0.80;;;0.80;;
673;SDS011;319;48.764;9.174;2022-09-21T07:32:39;8.37;;;8.17;;
673;SDS011;319;48.764;9.174;2022-09-21T07:35:06;1.53;;;1.53;;
673;SDS011;319;48.764;9.174;2022-09-21T07:37:33;0.80;;;0.80;;
673;SDS011;319;48.764;9.174;2022-09-21T07:40:00;5.13;;;5.03;;
673;SDS011;319;48.764;9.174;2022-09-21T07:42:29;8.00;;;7.80;;
673;SDS011;319;48.764;9.174;2022-09-21T07:44:56;9.27;;;9.07;;
673;SDS011;319;48.764;9.174;2022-09-21T07:47:25;9.57;;;9.37;;
673;SDS011;319;48.764;9.174;2022-09-21T07:49:52;7.37;;;7.17;;
673;SDS011;319;48.764;9.174;2022-09-21T07:52:19;10.33;;;10.03;;
673;SDS011;319;48.764;9.174;2022-09-21T07:54:46;9.23;;;9.03;;
673;SDS011;319;48.764;9.174;2022-09-21T07:57:13;10.63;;;10.33;;
673;SDS011;319;48.764;9.174;2022-09-21T07:59:57;9.30;;;9.10;;
673;SDS011;319;48.764;9.174;2022-09-21T08:02:25;11.40;;;11.10;;
673;SDS011;319;48.764;9.174;2022-09-21T08:04:52;11.73;;;11.43;;
673;SDS011;319;48.764;9.174;2022-09-21T08:07:19;9.50;;;9.30;;
673;SDS011;319;48.764;9.174;2022-09-21T08:09:46;11.60;;;11.30;;
673;SDS011;319;48.764;9.174;2022-09-21T08:12:13;8.57;;;8.37;;
673;SDS011;319;48.764;9.174;2022-09-21T08:14:41;10.87;;;10.57;;
673;SDS011;319;48.764;9.174;2022-09-21T08:17:08;11.33;;;11.03;;
673;SDS011;319;48.764;9.174;2022-09-21T08:19:36;11.57;;;11.27;;
673;SDS011;319;48.764;9.174;2022-09-21T08:22:03;10.60;;;10.30;;
673;SDS011;319;48.764;9.174;2022-09-21T08:24:30;11.20;;;10.90;;
673;SDS011;319;48.764;9.174;2022-09-21T08:26:57;7.60;;;7.40;;
673;SDS011;319;48.764;9.174;2022-09-21T08:29:23;3.77;;;3.67;;
673;SDS011;319;48.764;9.174;2022-09-21T08:31:50;12.50;;;12.20;;
673;SDS011;319;48.764;9.174;2022-09-21T08:34:17;10.20;;;9.90;;
673;SDS011;319;48.764;9.174;2022-09-21T08:36:45;10.67;;;10.37;;
673;SDS011;319;48.764;9.174;2022-09-21T08:39:12;13.87;;;13.47;;
673;SDS011;319;48.764;9.174;2022-09-21T08:41:48;11.00;;;10.70;;
673;SDS011;319;48.764;9.174;2022-09-21T08:44:26;7.30;;;7.10;;
673;SDS011;319;48.764;9.174;2022-09-21T08:47:00;8.60;;;8.40;;
673;SDS011;319;48.764;9.174;2022-09-21T08:49:29;9.20;;;9.00;;
673;SDS011;319;48.764;9.174;2022-09-21T08:52:03;4.97;;;4.87;;
673;SDS011;319;48.764;9.174;2022-09-21T08:54:34;8.37;;;8.17;;
673;SDS011;319;48.764;9.174;2022-09-21T08:57:07;9.33;;;9.13;;
673;SDS011;319;48.764;9.174;2022-09-21T08:59:38;12.90;;;12.60;;
673;SDS011;319;48.764;9.174;2022-09-21T09:02:19;11.23;;;10.93;;
673;SDS011;319;48.764;9.174;2022-09-21T09:05:02;12.90;;;12.60;;
673;SDS011;319;48.764;9.174;2022-09-21T09:07:50;12.40;;;12.10;;
673;SDS011;319;48.764;9.174;2022-09-21T09:10:31;9.70;;;9.50;;
673;SDS011;319;48.764;9.174;2022-09-21T09:13:04;12.70;;;12.40;;
673;SDS011;319;48.764;9.174;2022-09-21T09:15:47;12.60;;;12.30;;
673;SDS011;319;48.764;9.174;2022-09-21T09:18:22;9.40;;;9.20;;
673;SDS011;319;48.764;9.174;2022-09-21T09:20:56;0.83;;;0.83;;
673;SDS011;319;48.764;9.174;2022-09-21T09:23:27;10.10;;;9.80;;
673;SDS011;319;48.764;9.174;2022-09-21T09:25:58;10.80;;;10.50;;
673;SDS011;319;48.764;9.174;2022-09-21T09:28:29;0.90;;;0.90;;
673;SDS011;319;48.764;9.174;2022-09-21T09:31:03;0.90;;;0.90;;
673;SDS011;319;48.764;9.174;2022-09-21T09:33:40;0.90;;;0.90;;
673;SDS011;319;48.764;9.174;2022-09-21T09:36:13;0.90;;;0.90;;
673;SDS011;319;48.764;9.174;2022-09-21T09:38:43;9.33;;;9.13;;
673;SDS011;319;48.764;9.174;2022-09-21T09:41:19;9.83;;;9.63;;
673;SDS011;319;48.764;9.174;2022-09-21T09:44:06;9.60;;;9.40;;
673;SDS011;319;48.764;9.174;2022-09-21T09:46:47;9.70;;;9.50;;
673;SDS011;319;48.764;9.174;2022-09-21T09:49:26;10.60;;;10.30;;
673;SDS011;319;48.764;9.174;2022-09-21T09:51:59;11.80;;;11.50;;
673;SDS011;319;48.764;9.174;2022-09-21T09:54:28;11.93;;;11.63;;
673;SDS011;319;48.764;9.174;2022-09-21T09:56:58;12.20;;;11.90;;
673;SDS011;319;48.764;9.174;2022-09-21T09:59:29;10.20;;;9.93;;
673;SDS011;319;48.764;9.174;2022-09-21T10:02:02;11.17;;;10.87;;
673;SDS011;319;48.764;9.174;2022-09-21T10:04:29;9.73;;;9.53;;
673;SDS011;319;48.764;9.174;2022-09-21T10:06:58;12.60;;;12.30;;
673;SDS011;319;48.764;9.174;2022-09-21T10:09:26;12.70;;;12.40;;
673;SDS011;319;48.764;9.174;2022-09-21T10:11:56;12.00;;;11.70;;
673;SDS011;319;48.764;9.174;2022-09-21T10:14:26;12.53;;;12.23;;
673;SDS011;319;48.764;9.174;2022-09-21T10:16:56;11.40;;;11.10;;
673;SDS011;319;48.764;9.174;2022-09-21T10:19:28;8.27;;;8.07;;
673;SDS011;319;48.764;9.174;2022-09-21T10:21:56;12.00;;;11.70;;
673;SDS011;319;48.764;9.174;2022-09-21T10:24:24;11.40;;;11.10;;
673;SDS011;319;48.764;9.174;2022-09-21T10:27:00;8.90;;;8.70;;
673;SDS011;319;48.764;9.174;2022-09-21T10:29:31;9.20;;;9.00;;
673;SDS011;319;48.764;9.174;2022-09-21T10:32:13;8.10;;;7.90;;
673;SDS011;319;48.764;9.174;2022-09-21T10:37:39;9.53;;;9.33;;
673;SDS011;319;48.764;9.174;2022-09-21T10:40:16;8.70;;;8.50;;
673;SDS011;319;48.764;9.174;2022-09-21T10:42:55;12.60;;;12.30;;
673;SDS011;319;48.764;9.174;2022-09-21T10:45:24;10.80;;;10.50;;
673;SDS011;319;48.764;9.174;2022-09-21T10:47:53;10.97;;;10.67;;
673;SDS011;319;48.764;9.174;2022-09-21T10:50:23;11.40;;;11.10;;
673;SDS011;319;48.764;9.174;2022-09-21T10:52:54;11.87;;;11.57;;
673;SDS011;319;48.764;9.174;2022-09-21T10:55:28;11.63;;;11.33;;
673;SDS011;319;48.764;9.174;2022-09-21T10:57:56;11.10;;;10.80;;
673;SDS011;319;48.764;9.174;2022-09-21T11:00:28;9.93;;;9.73;;
673;SDS011;319;48.764;9.174;2022-09-21T11:03:00;11.00;;;10.70;;
673;SDS011;319;48.764;9.174;2022-09-21T11:05:50;9.40;;;9.20;;
673;SDS011;319;48.764;9.174;2022-09-21T11:08:21;9.20;;;9.00;;
673;SDS011;319;48.764;9.174;2022-09-21T11:11:01;9.87;;;9.67;;
673;SDS011;319;48.764;9.174;2022-09-21T11:13:35;11.10;;;10.80;;
673;SDS011;319;48.764;9.174;2022-09-21T11:16:09;11.37;;;11.07;;
673;SDS011;319;48.764;9.174;2022-09-21T11:18:43;10.77;;;10.47;;
673;SDS011;319;48.764;9.174;2022-09-21T11:21:21;10.90;;;10.60;;
673;SDS011;319;48.764;9.174;2022-09-21T11:23:57;9.70;;;9.50;;
673;SDS011;319;48.764;9.174;2022-09-21T11:26:36;9.10;;;8.90;;
673;SDS011;319;48.764;9.174;2022-09-21T11:29:08;8.33;;;8.13;;
673;SDS011;319;48.764;9.174;2022-09-21T11:31:42;10.00;;;9.80;;
673;SDS011;319;48.764;9.174;2022-09-21T11:34:34;8.90;;;8.70;;
673;SDS011;319;48.764;9.174;2022-09-21T11:37:16;9.17;;;8.97;;
673;SDS011;319;48.764;9.174;2022-09-21T11:39:57;6.90;;;6.70;;
673;SDS011;319;48.764;9.174;2022-09-21T11:42:35;9.90;;;9.70;;
673;SDS011;319;48.764;9.174;2022-09-21T11:45:17;6.13;;;6.03;;
673;SDS011;319;48.764;9.174;2022-09-21T11:47:59;8.27;;;8.07;;
673;SDS011;319;48.764;9.174;2022-09-21T11:50:39;8.00;;;7.80;;
673;SDS011;319;48.764;9.174;2022-09-21T11:53:16;11.60;;;11.30;;
673;SDS011;319;48.764;9.174;2022-09-21T11:56:00;10.03;;;9.80;;
673;SDS011;319;48.764;9.174;2022-09-21T11:59:05;8.80;;;8.60;;
673;SDS011;319;48.764;9.174;2022-09-21T12:01:47;10.60;;;10.30;;
673;SDS011;319;48.764;9.174;2022-09-21T12:04:35;7.93;;;7.73;;
673;SDS011;319;48.764;9.174;2022-09-21T12:13:03;8.43;;;8.23;;
673;SDS011;319;48.764;9.174;2022-09-21T12:15:38;7.73;;;7.53;;
673;SDS011;319;48.764;9.174;2022-09-21T12:18:11;6.00;;;5.90;;
673;SDS011;319;48.764;9.174;2022-09-21T12:20:44;5.20;;;5.10;;
673;SDS011;319;48.764;9.174;2022-09-21T12:23:17;8.80;;;8.60;;
673;SDS011;319;48.764;9.174;2022-09-21T12:25:48;9.10;;;8.90;;
673;SDS011;319;48.764;9.174;2022-09-21T12:28:19;8.90;;;8.70;;
673;SDS011;319;48.764;9.174;2022-09-21T12:30:51;8.33;;;8.13;;
673;SDS011;319;48.764;9.174;2022-09-21T12:33:22;8.80;;;8.60;;
673;SDS011;319;48.764;9.174;2022-09-21T12:35:57;8.47;;;8.27;;
673;SDS011;319;48.764;9.174;2022-09-21T12:38:29;7.30;;;7.10;;
673;SDS011;319;48.764;9.174;2022-09-21T12:41:02;9.80;;;9.60;;
673;SDS011;319;48.764;9.174;2022-09-21T12:43:42;9.50;;;9.30;;
673;SDS011;319;48.764;9.174;2022-09-21T12:46:14;7.50;;;7.30;;
673;SDS011;319;48.764;9.174;2022-09-21T12:48:44;5.07;;;4.97;;
673;SDS011;319;48.764;9.174;2022-09-21T12:51:15;4.00;;;3.90;;
673;SDS011;319;48.764;9.174;2022-09-21T12:53:51;4.40;;;4.30;;
673;SDS011;319;48.764;9.174;2022-09-21T12:56:31;5.23;;;5.13;;
673;SDS011;319;48.764;9.174;2022-09-21T12:59:14;5.10;;;5.00;;
673;SDS011;319;48.764;9.174;2022-09-21T13:01:53;5.83;;;5.73;;
673;SDS011;319;48.764;9.174;2022-09-21T13:04:29;6.70;;;6.50;;
673;SDS011;319;48.764;9.174;2022-09-21T13:10:14;5.03;;;4.93;;
673;SDS011;319;48.764;9.174;2022-09-21T13:12:47;4.90;;;4.80;;
673;SDS011;319;48.764;9.174;2022-09-21T13:15:21;6.40;;;6.30;;
673;SDS011;319;48.764;9.174;2022-09-21T13:17:57;6.80;;;6.60;;
673;SDS011;319;48.764;9.174;2022-09-21T13:20:26;7.90;;;7.70;;
673;SDS011;319;48.764;9.174;2022-09-21T13:23:13;9.07;;;8.87;;
673;SDS011;319;48.764;9.174;2022-09-21T13:25:45;9.13;;;8.93;;
673;SDS011;319;48.764;9.174;2022-09-21T13:28:18;8.13;;;7.93;;
673;SDS011;319;48.764;9.174;2022-09-21T13:30:48;10.27;;;9.97;;
673;SDS011;319;48.764;9.174;2022-09-21T13:33:39;9.07;;;8.87;;
673;SDS011;319;48.764;9.174;2022-09-21T13:36:31;10.00;;;9.80;;
673;SDS011;319;48.764;9.174;2022-09-21T13:39:03;8.33;;;8.13;;
673;SDS011;319;48.764;9.174;2022-09-21T13:41:41;10.10;;;9.83;;
673;SDS011;319;48.764;9.174;2022-09-21T13:44:18;9.50;;;9.30;;
673;SDS011;319;48.764;9.174;2022-09-21T13:47:04;8.53;;;8.33;;
673;SDS011;319;48.764;9.174;2022-09-21T13:49:39;7.10;;;6.90;;
673;SDS011;319;48.764;9.174;2022-09-21T13:52:21;9.50;;;9.30;;
673;SDS011;319;48.764;9.174;2022-09-21T13:54:53;9.10;;;8.90;;
673;SDS011;319;48.764;9.174;2022-09-21T13:57:24;10.07;;;9.87;;
673;SDS011;319;48.764;9.174;2022-09-21T14:00:03;9.70;;;9.50;;
673;SDS011;319;48.764;9.174;2022-09-21T14:02:34;10.40;;;10.10;;
673;SDS011;319;48.764;9.174;2022-09-21T14:05:07;10.03;;;9.80;;
673;SDS011;319;48.764;9.174;2022-09-21T14:07:44;9.90;;;9.70;;
673;SDS011;319;48.764;9.174;2022-09-21T14:10:16;8.87;;;8.67;;
673;SDS011;319;48.764;9.174;2022-09-21T14:12:48;10.00;;;9.80;;
673;SDS011;319;48.764;9.174;2022-09-21T14:15:35;9.70;;;9.50;;
673;SDS011;319;48.764;9.174;2022-09-21T14:18:20;6.90;;;6.70;;
673;SDS011;319;48.764;9.174;2022-09-21T14:21:09;9.20;;;9.00;;
673;SDS011;319;48.764;9.174;2022-09-21T14:23:41;9.10;;;8.90;;
673;SDS011;319;48.764;9.174;2022-09-21T14:26:56;8.50;;;8.30;;
673;SDS011;319;48.764;9.174;2022-09-21T14:29:35;5.83;;;5.73;;
673;SDS011;319;48.764;9.174;2022-09-21T14:32:10;8.47;;;8.27;;
673;SDS011;319;48.764;9.174;2022-09-21T14:34:43;7.77;;;7.57;;
673;SDS011;319;48.764;9.174;2022-09-21T14:37:16;7.30;;;7.10;;
673;SDS011;319;48.764;9.174;2022-09-21T14:39:57;5.70;;;5.60;;
673;SDS011;319;48.764;9.174;2022-09-21T14:42:29;9.87;;;9.67;;
673;SDS011;319;48.764;9.174;2022-09-21T14:44:58;8.90;;;8.70;;
673;SDS011;319;48.764;9.174;2022-09-21T14:47:37;6.57;;;6.40;;
673;SDS011;319;48.764;9.174;2022-09-21T14:50:19;8.10;;;7.90;;
673;SDS011;319;48.764;9.174;2022-09-21T14:53:09;8.23;;;8.03;;
673;SDS011;319;48.764;9.174;2022-09-21T14:56:10;4.80;;;4.70;;
673;SDS011;319;48.764;9.174;2022-09-21T14:59:14;6.17;;;6.07;;
673;SDS011;319;48.764;9.174;2022-09-21T15:01:56;5.20;;;5.10;;
673;SDS011;319;48.764;9.174;2022-09-21T15:04:30;5.10;;;5.00;;
673;SDS011;319;48.764;9.174;2022-09-21T15:07:08;4.43;;;4.33;;
673;SDS011;319;48.764;9.174;2022-09-21T15:10:13;3.87;;;3.77;;
673;SDS011;319;48.764;9.174;2022-09-21T15:13:07;4.40;;;4.30;;
673;SDS011;319;48.764;9.174;2022-09-21T15:15:57;5.43;;;5.33;;
673;SDS011;319;48.764;9.174;2022-09-21T15:21:32;4.20;;;4.10;;
673;SDS011;319;48.764;9.174;2022-09-21T15:23:59;2.67;;;2.67;;
673;SDS011;319;48.764;9.174;2022-09-21T15:26:43;5.50;;;5.40;;
673;SDS011;319;48.764;9.174;2022-09-21T15:29:15;3.80;;;3.70;;
673;SDS011;319;48.764;9.174;2022-09-21T15:31:48;5.50;;;5.40;;
673;SDS011;319;48.764;9.174;2022-09-21T15:34:15;4.90;;;4.80;;
673;SDS011;319;48.764;9.174;2022-09-21T15:36:42;5.53;;;5.43;;
673;SDS011;319;48.764;9.174;2022-09-21T15:39:24;5.03;;;4.93;;
673;SDS011;319;48.764;9.174;2022-09-21T15:44:44;1.63;;;1.63;;
673;SDS011;319;48.764;9.174;2022-09-21T15:47:13;3.30;;;3.20;;
673;SDS011;319;48.764;9.174;2022-09-21T15:49:44;3.70;;;3.60;;
673;SDS011;319;48.764;9.174;2022-09-21T15:52:12;6.60;;;6.40;;
673;SDS011;319;48.764;9.174;2022-09-21T15:54:50;5.27;;;5.17;;
673;SDS011;319;48.764;9.174;2022-09-21T15:57:23;4.70;;;4.60;;
673;SDS011;319;48.764;9.174;2022-09-21T15:59:57;3.23;;;3.13;;
673;SDS011;319;48.764;9.174;2022-09-21T16:02:33;3.93;;;3.83;;
673;SDS011;319;48.764;9.174;2022-09-21T16:05:03;3.77;;;3.67;;
673;SDS011;319;48.764;9.174;2022-09-21T16:07:33;3.60;;;3.50;;
673;SDS011;319;48.764;9.174;2022-09-21T16:10:02;5.73;;;5.63;;
673;SDS011;319;48.764;9.174;2022-09-21T16:12:53;1.00;;;1.00;;
673;SDS011;319;48.764;9.174;2022-09-21T16:15:58;7.80;;;7.60;;
673;SDS011;319;48.764;9.174;2022-09-21T16:18:28;6.27;;;6.17;;
673;SDS011;319;48.764;9.174;2022-09-21T16:21:06;7.40;;;7.20;;
673;SDS011;319;48.764;9.174;2022-09-21T16:23:34;8.00;;;7.80;;
673;SDS011;319;48.764;9.174;2022-09-21T16:26:03;6.30;;;6.20;;
673;SDS011;319;48.764;9.174;2022-09-21T16:28:35;8.60;;;8.40;;
673;SDS011;319;48.764;9.174;2022-09-21T16:31:25;7.17;;;6.97;;
673;SDS011;319;48.764;9.174;2022-09-21T16:33:56;8.10;;;7.90;;
673;SDS011;319;48.764;9.174;2022-09-21T16:36:33;5.90;;;5.80;;
673;SDS011;319;48.764;9.174;2022-09-21T16:39:08;4.63;;;4.53;;
673;SDS011;319;48.764;9.174;2022-09-21T16:41:40;7.90;;;7.70;;
673;SDS011;319;48.764;9.174;2022-09-21T16:44:20;7.03;;;6.83;;
673;SDS011;319;48.764;9.174;2022-09-21T16:46:50;7.97;;;7.77;;
673;SDS011;319;48.764;9.174;2022-09-21T16:49:25;6.20;;;6.10;;